createdAt,value
2019-05-29T05:11:57.847Z,8.38
2019-05-29T05:21:57.782Z,10.13
2019-05-29T05:31:57.795Z,11.25
2019-05-29T05:41:59.945Z,12.13
2019-05-29T05:51:57.728Z,12.88
2019-05-29T06:01:57.907Z,13.50
2019-05-29T06:11:59.600Z,14.25
2019-05-29T06:22:00.082Z,14.38
2019-05-29T06:31:59.217Z,14.38
2019-05-29T06:42:00.223Z,14.38
2019-05-29T06:51:57.915Z,15.13
2019-05-29T07:01:57.808Z,18.00
2019-05-29T07:11:57.771Z,19.00
2019-05-29T07:21:57.754Z,17.62
2019-05-29T07:31:59.740Z,17.75
2019-05-29T07:41:57.347Z,19.37
2019-05-29T07:51:59.793Z,19.00
2019-05-29T08:01:59.756Z,19.75
2019-05-29T08:11:57.369Z,21.50
2019-05-29T08:21:59.587Z,21.12
2019-05-29T08:31:57.816Z,21.75
2019-05-29T08:42:21.394Z,21.12
2019-05-29T08:52:11.059Z,20.00
2019-05-29T09:01:57.819Z,19.00
2019-05-29T09:11:57.785Z,22.25
2019-05-29T09:21:57.799Z,23.50
2019-05-29T09:31:57.822Z,23.50
2019-05-29T09:41:57.540Z,22.00
2019-05-29T09:51:56.249Z,23.87
2019-05-29T10:02:00.352Z,24.37
2019-05-29T10:11:59.438Z,24.25
2019-05-29T10:21:58.336Z,23.25
2019-05-29T10:31:57.535Z,22.37
2019-05-29T10:41:57.559Z,22.37
2019-05-29T10:52:10.708Z,24.25
2019-05-29T11:01:56.826Z,25.62
2019-05-29T11:11:57.679Z,23.25
2019-05-29T11:22:04.611Z,24.75
2019-05-29T11:31:57.072Z,26.12
2019-05-29T11:41:57.100Z,25.12
2019-05-29T11:52:18.794Z,24.12
2019-05-29T12:01:57.375Z,24.75
2019-05-29T12:11:57.992Z,25.37
2019-05-29T12:21:58.352Z,24.37
2019-05-29T12:31:57.113Z,25.12
2019-05-29T12:41:57.595Z,24.75
2019-05-29T12:51:57.680Z,23.62
2019-05-29T13:01:58.452Z,23.12
2019-05-29T13:11:58.458Z,25.37
2019-05-29T13:21:57.375Z,25.00
2019-05-29T13:31:58.115Z,26.00
2019-05-29T13:41:58.606Z,25.62
2019-05-29T13:51:57.208Z,26.87
2019-05-29T14:01:58.429Z,26.37
2019-05-29T14:11:58.912Z,25.50
2019-05-29T14:21:57.326Z,26.37
2019-05-29T14:31:57.220Z,29.50
2019-05-29T14:41:57.905Z,30.12
2019-05-29T14:51:57.832Z,28.00
2019-05-29T15:01:57.293Z,28.38
2019-05-29T15:11:57.304Z,28.87
2019-05-29T15:21:57.456Z,25.75
2019-05-29T15:31:57.432Z,23.75
2019-05-29T15:41:57.385Z,23.50
2019-05-29T15:51:57.565Z,25.12
2019-05-29T16:01:57.386Z,28.00
2019-05-29T16:11:57.494Z,29.25
2019-05-29T16:21:57.866Z,26.50
2019-05-29T16:31:57.952Z,28.87
2019-05-29T16:41:57.863Z,28.00
2019-05-29T16:51:57.864Z,27.13
2019-05-29T17:01:57.430Z,25.88
2019-05-29T17:11:57.765Z,25.75
2019-05-29T17:21:57.808Z,24.50
2019-05-29T17:31:57.854Z,22.37
2019-05-29T17:41:57.835Z,21.75
2019-05-29T17:51:57.893Z,20.88
2019-05-29T18:01:57.998Z,20.00
2019-05-29T18:11:57.996Z,19.37
2019-05-29T18:21:57.900Z,19.00
2019-05-29T18:31:57.880Z,18.75
2019-05-29T18:41:57.837Z,18.12
2019-05-29T18:52:00.253Z,17.75
2019-05-29T19:01:59.832Z,17.25
